createdAt,value
2023-03-21T00:03:12.988Z,40155.66
2023-03-21T00:08:19.012Z,40217.47
2023-03-21T00:13:23.362Z,40087.88
2023-03-21T00:18:28.684Z,39924.38
2023-03-21T00:23:34.860Z,39876.53
2023-03-21T00:28:40.602Z,39844.63
2023-03-21T00:33:44.996Z,39808.72
2023-03-21T00:38:50.713Z,39778.81
2023-03-21T00:43:55.823Z,39768.84
2023-03-21T00:49:00.324Z,39728.97
2023-03-21T00:54:08.037Z,39746.94
2023-03-21T00:59:12.127Z,39669.16
2023-03-21T01:04:17.135Z,39681.13
2023-03-21T01:09:25.003Z,39679.13
2023-03-21T01:14:29.587Z,39693.09
2023-03-21T01:19:50.239Z,39671.16
2023-03-21T01:25:08.761Z,39703.06
2023-03-21T01:30:24.776Z,39669.16
2023-03-21T01:35:32.104Z,39663.19
2023-03-21T01:40:45.274Z,39693.09
2023-03-21T01:46:32.303Z,39689.09
2023-03-21T01:52:26.338Z,39679.13
2023-03-21T01:57:52.139Z,39687.13
2023-03-21T02:03:17.034Z,39643.25
2023-03-21T02:08:39.919Z,39683.13
2023-03-21T02:13:55.861Z,39677.16
2023-03-21T02:19:34.193Z,39697.09
2023-03-21T02:25:21.356Z,39681.13
2023-03-21T02:30:52.363Z,39691.09
2023-03-21T02:36:27.255Z,39629.28
2023-03-21T02:41:44.447Z,39673.16
2023-03-21T02:47:03.170Z,39663.19
2023-03-21T02:52:18.701Z,39697.09
2023-03-21T02:57:41.686Z,39689.09
2023-03-21T03:02:54.650Z,39667.19
2023-03-21T03:08:20.519Z,39701.06
2023-03-21T03:13:43.402Z,39727.00
2023-03-21T03:18:53.996Z,39611.34
2023-03-21T03:24:01.444Z,39649.22
2023-03-21T03:29:13.599Z,39643.25
2023-03-21T03:34:21.931Z,39681.13
2023-03-21T03:39:33.100Z,39655.22
2023-03-21T03:44:39.292Z,39661.19
2023-03-21T03:49:51.986Z,39697.09
2023-03-21T03:54:57.386Z,39635.28
2023-03-21T04:00:11.026Z,39697.09
2023-03-21T04:05:22.049Z,39641.25
2023-03-21T04:10:26.500Z,39609.34
2023-03-21T04:15:32.949Z,39627.31
2023-03-21T04:20:49.591Z,39607.38
2023-03-21T04:25:56.994Z,39541.56
2023-03-21T04:31:26.026Z,39625.31
2023-03-21T04:36:43.251Z,39641.25
2023-03-21T04:41:48.261Z,39613.34
2023-03-21T04:46:54.125Z,39585.44
2023-03-21T04:51:58.299Z,39561.50
2023-03-21T04:57:02.988Z,39677.16
2023-03-21T05:02:08.618Z,39812.72
2023-03-21T05:07:13.163Z,39832.66
2023-03-21T05:12:19.575Z,39814.72
2023-03-21T05:17:25.256Z,39746.94
2023-03-21T05:22:29.819Z,39756.91
2023-03-21T05:27:35.975Z,39840.63
2023-03-21T05:32:47.243Z,39968.25
2023-03-21T05:37:51.617Z,39876.53
2023-03-21T05:42:56.036Z,39976.22
2023-03-21T05:48:03.543Z,40303.22
2023-03-21T05:53:13.843Z,40436.84
2023-03-21T05:58:19.167Z,40500.66
2023-03-21T06:03:30.433Z,40570.44
2023-03-21T06:08:44.416Z,40538.53
2023-03-21T06:13:48.980Z,40402.94
2023-03-21T06:18:55.016Z,40486.69
2023-03-21T06:24:19.639Z,40426.84
2023-03-21T06:29:24.318Z,40474.72
2023-03-21T06:34:31.187Z,40392.97
2023-03-21T06:39:35.873Z,40386.97
2023-03-21T06:44:40.707Z,40177.59
2023-03-21T06:49:51.801Z,40307.22
2023-03-21T06:54:56.518Z,40375.00
2023-03-21T07:00:01.011Z,40367.03
2023-03-21T07:05:08.222Z,40558.47
2023-03-21T07:10:14.032Z,40548.50
2023-03-21T07:15:38.307Z,40522.56
2023-03-21T07:20:51.228Z,40582.41
2023-03-21T07:25:55.951Z,40628.28
2023-03-21T07:31:01.912Z,40544.50
2023-03-21T07:36:12.766Z,40564.47
2023-03-21T07:46:28.417Z,40823.72
2023-03-21T07:51:35.611Z,40809.75
2023-03-21T07:56:40.210Z,40861.59
2023-03-21T08:01:44.532Z,40821.72
2023-03-21T08:06:51.709Z,40771.84
2023-03-21T08:11:56.251Z,40779.84
2023-03-21T08:17:00.597Z,40931.41
2023-03-21T08:22:06.890Z,41003.19
2023-03-21T08:27:11.408Z,41007.19
2023-03-21T08:32:15.744Z,41067.03
2023-03-21T08:37:21.306Z,41328.31
2023-03-21T08:42:25.494Z,41376.16
2023-03-21T08:47:29.684Z,41432.03
2023-03-21T08:52:35.804Z,41603.56
2023-03-21T08:57:40.400Z,41539.72
2023-03-21T09:02:47.047Z,41513.81
2023-03-21T09:07:53.395Z,41561.69
2023-03-21T09:12:58.245Z,41701.31
2023-03-21T09:18:13.316Z,41669.38
2023-03-21T09:23:19.948Z,41727.22
2023-03-21T09:28:25.285Z,41797.06
2023-03-21T09:33:30.356Z,41846.94
2023-03-21T09:38:36.805Z,42040.44
2023-03-21T09:43:52.745Z,42154.13
2023-03-21T09:49:00.511Z,42497.28
2023-03-21T09:54:13.672Z,42553.16
2023-03-21T09:59:25.290Z,42517.25
2023-03-21T10:04:29.803Z,42748.69
2023-03-21T10:09:38.886Z,42800.56
2023-03-21T10:14:47.094Z,42822.50
2023-03-21T10:20:00.226Z,43006.09
2023-03-21T10:25:07.196Z,42988.13
2023-03-21T10:30:21.542Z,43055.97
2023-03-21T10:35:25.758Z,43123.81
2023-03-21T10:40:33.020Z,43097.88
2023-03-21T10:45:38.393Z,43117.84
2023-03-21T10:50:43.909Z,43231.56
2023-03-21T10:55:53.992Z,43261.50
2023-03-21T11:01:02.486Z,43283.47
2023-03-21T11:06:09.947Z,43303.41
2023-03-21T11:11:22.769Z,43365.28
2023-03-21T11:16:32.016Z,43497.00
2023-03-21T11:21:38.663Z,43391.22
2023-03-21T11:26:46.120Z,43471.06
2023-03-21T11:31:50.274Z,43598.78
2023-03-21T11:37:01.442Z,43646.66
2023-03-21T11:42:08.196Z,43744.47
2023-03-21T11:47:13.143Z,43762.44
2023-03-21T11:52:31.481Z,43794.34
2023-03-21T11:57:45.522Z,43812.31
2023-03-21T12:03:12.597Z,43854.22
2023-03-21T12:08:32.025Z,43846.25
2023-03-21T12:13:53.551Z,43890.16
2023-03-21T12:19:18.192Z,43890.16
2023-03-21T12:24:25.130Z,43906.13
2023-03-21T12:29:53.105Z,43894.16
2023-03-21T12:35:17.259Z,43742.47
2023-03-21T12:40:37.520Z,43722.50
2023-03-21T12:45:47.956Z,43740.47
2023-03-21T12:50:56.415Z,43766.41
2023-03-21T12:56:04.396Z,43766.41
2023-03-21T13:01:12.322Z,43594.78
2023-03-21T13:06:21.974Z,43678.59
2023-03-21T13:11:28.797Z,43632.69
2023-03-21T13:16:38.686Z,43686.59
2023-03-21T13:21:52.195Z,43624.72
2023-03-21T13:27:07.697Z,43588.78
2023-03-21T13:32:20.656Z,43618.72
2023-03-21T13:37:28.054Z,43640.69
2023-03-21T13:42:35.117Z,43656.66
2023-03-21T13:47:52.326Z,43618.72
2023-03-21T13:53:21.116Z,43628.72
2023-03-21T13:58:32.983Z,43642.69
2023-03-21T14:03:39.542Z,43710.53
2023-03-21T14:08:47.366Z,43604.75
2023-03-21T14:13:51.978Z,43610.75
2023-03-21T14:19:00.970Z,43720.50
2023-03-21T14:24:07.083Z,43726.50
2023-03-21T14:29:26.227Z,43738.47
2023-03-21T14:34:33.502Z,43748.47
2023-03-21T14:39:37.655Z,43746.47
2023-03-21T14:44:58.650Z,43742.47
2023-03-21T14:50:05.398Z,43718.53
2023-03-21T14:55:17.901Z,43702.56
2023-03-21T15:00:26.682Z,43686.59
2023-03-21T15:05:37.342Z,43706.53
2023-03-21T15:10:42.172Z,43686.59
2023-03-21T15:15:48.013Z,43660.63
2023-03-21T15:20:56.506Z,43642.69
2023-03-21T15:26:04.326Z,43654.66
2023-03-21T15:31:22.975Z,43666.63
2023-03-21T15:36:30.251Z,43644.69
2023-03-21T15:41:35.000Z,43602.75
2023-03-21T15:46:44.545Z,43572.81
2023-03-21T15:51:53.725Z,43602.75
2023-03-21T15:57:01.458Z,43568.84
2023-03-21T16:02:07.428Z,43594.78
2023-03-21T16:07:17.862Z,43578.81
2023-03-21T16:12:22.268Z,43548.88
2023-03-21T16:17:35.761Z,43562.84
2023-03-21T16:22:41.890Z,43510.97
2023-03-21T16:27:46.349Z,43526.94
2023-03-21T16:32:51.718Z,43443.09
2023-03-21T16:37:57.732Z,43387.22
2023-03-21T16:43:02.450Z,43331.34
2023-03-21T16:48:09.153Z,43299.44
2023-03-21T16:53:15.111Z,43275.47
2023-03-21T16:58:19.549Z,43223.59
2023-03-21T17:03:24.112Z,43161.75
2023-03-21T17:08:30.695Z,43121.81
2023-03-21T17:13:35.444Z,43135.78
2023-03-21T17:18:39.696Z,43103.88
2023-03-21T17:23:45.760Z,43079.91
2023-03-21T17:28:50.570Z,43032.03
2023-03-21T17:33:55.137Z,43016.06
2023-03-21T17:39:01.108Z,43024.06
2023-03-21T17:44:05.987Z,43016.06
2023-03-21T17:49:14.784Z,43026.03
2023-03-21T17:54:20.591Z,42988.13
2023-03-21T17:59:26.216Z,42972.16
2023-03-21T18:04:31.110Z,42972.16
2023-03-21T18:09:36.843Z,42938.25
2023-03-21T18:14:41.228Z,42916.28
2023-03-21T18:19:46.683Z,42894.34
2023-03-21T18:24:52.403Z,42842.47
2023-03-21T18:35:22.108Z,42810.53
2023-03-21T18:40:29.156Z,42764.66
2023-03-21T18:45:34.119Z,42768.66
2023-03-21T18:50:38.548Z,42744.69
2023-03-21T18:55:47.242Z,42740.72
2023-03-21T19:00:54.093Z,42688.84
2023-03-21T19:06:00.039Z,42672.88
2023-03-21T19:11:07.142Z,42692.81
2023-03-21T19:16:11.854Z,42674.88
2023-03-21T19:21:17.205Z,42662.91
2023-03-21T19:26:23.405Z,42628.97
2023-03-21T19:31:28.041Z,42585.06
2023-03-21T19:36:34.644Z,42543.19
2023-03-21T19:41:41.217Z,42399.53
2023-03-21T19:46:46.121Z,42233.94
2023-03-21T19:51:51.446Z,42158.13
2023-03-21T19:56:58.146Z,42024.47
2023-03-21T20:02:25.539Z,41850.91
2023-03-21T20:07:27.994Z,41767.13
2023-03-21T20:12:33.957Z,41595.59
2023-03-21T20:17:39.004Z,41611.53
2023-03-21T20:23:05.635Z,41579.63
2023-03-21T20:28:24.572Z,41575.63
2023-03-21T20:33:31.457Z,41555.69
2023-03-21T20:38:37.732Z,41569.66
2023-03-21T20:44:39.138Z,41537.75
2023-03-21T20:49:08.113Z,41505.81
2023-03-21T20:54:12.758Z,41475.91
2023-03-21T20:59:26.438Z,41444.00
2023-03-21T21:05:12.273Z,41380.16
2023-03-21T21:09:57.930Z,41392.13
2023-03-21T21:15:04.248Z,41352.25
2023-03-21T21:20:17.870Z,41254.50
2023-03-21T21:25:24.204Z,41246.53
2023-03-21T21:30:34.656Z,41208.63
2023-03-21T21:35:38.875Z,41184.69
2023-03-21T21:40:43.172Z,41152.78
2023-03-21T21:45:50.494Z,41086.97
2023-03-21T21:50:55.573Z,41057.06
2023-03-21T21:56:02.238Z,41009.19
2023-03-21T22:01:08.663Z,40925.41
2023-03-21T22:06:13.766Z,40911.47
2023-03-21T22:11:18.785Z,40925.41
2023-03-21T22:16:24.445Z,40873.56
2023-03-21T22:21:28.809Z,40881.53
2023-03-21T22:26:33.733Z,40861.59
2023-03-21T22:31:42.843Z,40953.34
2023-03-21T22:36:47.356Z,40819.72
2023-03-21T22:41:51.782Z,40698.06
2023-03-21T22:46:57.349Z,40670.16
2023-03-21T22:52:03.455Z,40315.19
2023-03-21T22:57:08.759Z,40111.81
2023-03-21T23:02:15.270Z,40063.94
2023-03-21T23:07:19.817Z,40012.09
2023-03-21T23:12:24.239Z,40020.09
2023-03-21T23:17:30.109Z,40020.09
2023-03-21T23:22:35.775Z,39984.19
2023-03-21T23:27:40.370Z,39996.16
2023-03-21T23:32:45.940Z,40004.13
2023-03-21T23:37:52.788Z,40000.16
2023-03-21T23:42:57.446Z,40020.09
2023-03-21T23:48:02.998Z,40089.88
2023-03-21T23:53:07.396Z,40053.97
2023-03-21T23:58:12.255Z,40042.00
